sensor_id;sensor_type;location;lat;lon;timestamp;P1;durP1;ratioP1;P2;durP2;ratioP2
11533;SDS011;5823;50.588;8.462;2023-08-06T00:01:33;0.30;;;0.30;;
11533;SDS011;5823;50.588;8.462;2023-08-06T00:04:01;0.20;;;0.20;;
11533;SDS011;5823;50.588;8.462;2023-08-06T00:06:28;0.40;;;0.40;;
11533;SDS011;5823;50.588;8.462;2023-08-06T00:08:54;0.43;;;0.43;;
11533;SDS011;5823;50.588;8.462;2023-08-06T00:11:21;0.22;;;0.22;;
11533;SDS011;5823;50.588;8.462;2023-08-06T00:13:47;0.30;;;0.30;;
11533;SDS011;5823;50.588;8.462;2023-08-06T00:16:13;0.20;;;0.20;;
11533;SDS011;5823;50.588;8.462;2023-08-06T00:18:40;0.30;;;0.30;;
11533;SDS011;5823;50.588;8.462;2023-08-06T00:21:08;0.28;;;0.28;;
11533;SDS011;5823;50.588;8.462;2023-08-06T00:29:18;0.10;;;0.10;;
11533;SDS011;5823;50.588;8.462;2023-08-06T00:31:44;0.25;;;0.25;;
11533;SDS011;5823;50.588;8.462;2023-08-06T00:34:11;0.10;;;0.10;;
11533;SDS011;5823;50.588;8.462;2023-08-06T00:36:38;0.22;;;0.22;;
11533;SDS011;5823;50.588;8.462;2023-08-06T00:39:05;0.15;;;0.15;;
11533;SDS011;5823;50.588;8.462;2023-08-06T00:41:32;0.32;;;0.32;;
11533;SDS011;5823;50.588;8.462;2023-08-06T00:43:58;0.38;;;0.38;;
11533;SDS011;5823;50.588;8.462;2023-08-06T00:46:24;0.22;;;0.22;;
11533;SDS011;5823;50.588;8.462;2023-08-06T00:48:50;0.10;;;0.10;;
11533;SDS011;5823;50.588;8.462;2023-08-06T00:51:17;0.20;;;0.20;;
11533;SDS011;5823;50.588;8.462;2023-08-06T00:53:45;0.30;;;0.30;;
11533;SDS011;5823;50.588;8.462;2023-08-06T00:56:11;0.40;;;0.40;;
11533;SDS011;5823;50.588;8.462;2023-08-06T00:58:38;0.30;;;0.30;;
11533;SDS011;5823;50.588;8.462;2023-08-06T01:01:04;0.22;;;0.22;;
11533;SDS011;5823;50.588;8.462;2023-08-06T01:03:31;0.30;;;0.30;;
11533;SDS011;5823;50.588;8.462;2023-08-06T01:05:57;0.20;;;0.20;;
11533;SDS011;5823;50.588;8.462;2023-08-06T01:08:27;0.10;;;0.10;;
11533;SDS011;5823;50.588;8.462;2023-08-06T01:11:00;0.20;;;0.20;;
11533;SDS011;5823;50.588;8.462;2023-08-06T01:13:31;0.30;;;0.30;;
11533;SDS011;5823;50.588;8.462;2023-08-06T01:15:58;0.20;;;0.20;;
11533;SDS011;5823;50.588;8.462;2023-08-06T01:18:29;0.30;;;0.28;;
11533;SDS011;5823;50.588;8.462;2023-08-06T01:20:57;0.20;;;0.20;;
11533;SDS011;5823;50.588;8.462;2023-08-06T01:23:23;0.32;;;0.32;;
11533;SDS011;5823;50.588;8.462;2023-08-06T01:34:30;0.30;;;0.30;;
11533;SDS011;5823;50.588;8.462;2023-08-06T01:36:58;0.25;;;0.25;;
11533;SDS011;5823;50.588;8.462;2023-08-06T01:39:25;0.20;;;0.20;;
11533;SDS011;5823;50.588;8.462;2023-08-06T01:41:51;0.40;;;0.40;;
11533;SDS011;5823;50.588;8.462;2023-08-06T01:44:18;0.38;;;0.38;;
11533;SDS011;5823;50.588;8.462;2023-08-06T01:46:44;0.20;;;0.20;;
11533;SDS011;5823;50.588;8.462;2023-08-06T01:49:11;0.40;;;0.40;;
11533;SDS011;5823;50.588;8.462;2023-08-06T01:51:37;0.52;;;0.30;;
11533;SDS011;5823;50.588;8.462;2023-08-06T01:54:05;0.20;;;0.20;;
11533;SDS011;5823;50.588;8.462;2023-08-06T01:56:32;0.40;;;0.40;;
11533;SDS011;5823;50.588;8.462;2023-08-06T01:58:58;0.35;;;0.35;;
11533;SDS011;5823;50.588;8.462;2023-08-06T02:01:24;0.35;;;0.30;;
11533;SDS011;5823;50.588;8.462;2023-08-06T02:03:51;0.30;;;0.30;;
11533;SDS011;5823;50.588;8.462;2023-08-06T02:06:17;0.40;;;0.40;;
11533;SDS011;5823;50.588;8.462;2023-08-06T02:08:43;0.32;;;0.32;;
11533;SDS011;5823;50.588;8.462;2023-08-06T02:11:11;0.30;;;0.30;;
11533;SDS011;5823;50.588;8.462;2023-08-06T02:13:37;0.30;;;0.30;;
11533;SDS011;5823;50.588;8.462;2023-08-06T02:16:06;0.25;;;0.25;;
11533;SDS011;5823;50.588;8.462;2023-08-06T02:18:32;0.30;;;0.30;;
11533;SDS011;5823;50.588;8.462;2023-08-06T02:20:59;0.20;;;0.20;;
11533;SDS011;5823;50.588;8.462;2023-08-06T02:23:25;0.15;;;0.15;;
11533;SDS011;5823;50.588;8.462;2023-08-06T02:25:58;0.20;;;0.20;;
11533;SDS011;5823;50.588;8.462;2023-08-06T02:48:28;0.15;;;0.15;;
11533;SDS011;5823;50.588;8.462;2023-08-06T02:50:56;0.10;;;0.10;;
11533;SDS011;5823;50.588;8.462;2023-08-06T02:53:23;0.20;;;0.20;;
11533;SDS011;5823;50.588;8.462;2023-08-06T02:55:49;0.10;;;0.10;;
11533;SDS011;5823;50.588;8.462;2023-08-06T02:58:16;0.10;;;0.10;;
11533;SDS011;5823;50.588;8.462;2023-08-06T03:00:42;0.10;;;0.10;;
11533;SDS011;5823;50.588;8.462;2023-08-06T03:03:09;0.10;;;0.10;;
11533;SDS011;5823;50.588;8.462;2023-08-06T03:05:37;0.20;;;0.20;;
11533;SDS011;5823;50.588;8.462;2023-08-06T03:08:03;0.20;;;0.20;;
11533;SDS011;5823;50.588;8.462;2023-08-06T03:10:30;0.22;;;0.22;;
11533;SDS011;5823;50.588;8.462;2023-08-06T03:12:56;0.22;;;0.22;;
11533;SDS011;5823;50.588;8.462;2023-08-06T03:15:22;0.30;;;0.30;;
11533;SDS011;5823;50.588;8.462;2023-08-06T03:17:49;0.20;;;0.20;;
11533;SDS011;5823;50.588;8.462;2023-08-06T03:20:16;0.10;;;0.10;;
11533;SDS011;5823;50.588;8.462;2023-08-06T03:22:43;0.20;;;0.20;;
11533;SDS011;5823;50.588;8.462;2023-08-06T03:25:10;0.20;;;0.20;;
11533;SDS011;5823;50.588;8.462;2023-08-06T03:41:58;0.28;;;0.28;;
11533;SDS011;5823;50.588;8.462;2023-08-06T03:44:25;0.10;;;0.10;;
11533;SDS011;5823;50.588;8.462;2023-08-06T03:46:52;0.10;;;0.10;;
11533;SDS011;5823;50.588;8.462;2023-08-06T03:49:18;0.30;;;0.30;;
11533;SDS011;5823;50.588;8.462;2023-08-06T03:51:45;0.22;;;0.22;;
11533;SDS011;5823;50.588;8.462;2023-08-06T03:54:11;0.30;;;0.30;;
11533;SDS011;5823;50.588;8.462;2023-08-06T03:56:41;0.10;;;0.10;;
11533;SDS011;5823;50.588;8.462;2023-08-06T03:59:09;0.15;;;0.15;;
11533;SDS011;5823;50.588;8.462;2023-08-06T04:01:35;0.10;;;0.10;;
11533;SDS011;5823;50.588;8.462;2023-08-06T04:04:01;0.30;;;0.30;;
11533;SDS011;5823;50.588;8.462;2023-08-06T04:06:28;0.32;;;0.32;;
11533;SDS011;5823;50.588;8.462;2023-08-06T04:08:54;0.22;;;0.22;;
11533;SDS011;5823;50.588;8.462;2023-08-06T04:11:21;0.35;;;0.35;;
11533;SDS011;5823;50.588;8.462;2023-08-06T04:13:47;0.22;;;0.22;;
11533;SDS011;5823;50.588;8.462;2023-08-06T04:16:15;0.20;;;0.20;;
11533;SDS011;5823;50.588;8.462;2023-08-06T04:18:41;0.20;;;0.20;;
11533;SDS011;5823;50.588;8.462;2023-08-06T04:21:07;0.30;;;0.30;;
11533;SDS011;5823;50.588;8.462;2023-08-06T04:23:33;0.20;;;0.20;;
11533;SDS011;5823;50.588;8.462;2023-08-06T04:25:59;0.30;;;0.30;;
11533;SDS011;5823;50.588;8.462;2023-08-06T04:31:22;0.17;;;0.17;;
11533;SDS011;5823;50.588;8.462;2023-08-06T04:33:49;0.20;;;0.20;;
11533;SDS011;5823;50.588;8.462;2023-08-06T04:36:15;0.10;;;0.10;;
11533;SDS011;5823;50.588;8.462;2023-08-06T04:38:42;0.20;;;0.20;;
11533;SDS011;5823;50.588;8.462;2023-08-06T04:41:10;0.17;;;0.17;;
11533;SDS011;5823;50.588;8.462;2023-08-06T04:43:38;0.30;;;0.30;;
11533;SDS011;5823;50.588;8.462;2023-08-06T04:46:05;0.35;;;0.35;;
11533;SDS011;5823;50.588;8.462;2023-08-06T04:48:32;0.35;;;0.35;;
11533;SDS011;5823;50.588;8.462;2023-08-06T04:50:59;0.20;;;0.20;;
11533;SDS011;5823;50.588;8.462;2023-08-06T04:53:26;0.30;;;0.30;;
11533;SDS011;5823;50.588;8.462;2023-08-06T04:55:52;0.28;;;0.28;;
11533;SDS011;5823;50.588;8.462;2023-08-06T04:58:19;0.30;;;0.30;;
11533;SDS011;5823;50.588;8.462;2023-08-06T05:00:45;0.20;;;0.20;;
11533;SDS011;5823;50.588;8.462;2023-08-06T05:03:12;0.20;;;0.10;;
11533;SDS011;5823;50.588;8.462;2023-08-06T05:05:41;0.10;;;0.10;;
11533;SDS011;5823;50.588;8.462;2023-08-06T05:08:07;0.28;;;0.28;;
11533;SDS011;5823;50.588;8.462;2023-08-06T05:10:33;0.15;;;0.15;;
11533;SDS011;5823;50.588;8.462;2023-08-06T05:13:00;0.30;;;0.30;;
11533;SDS011;5823;50.588;8.462;2023-08-06T05:15:26;0.10;;;0.10;;
11533;SDS011;5823;50.588;8.462;2023-08-06T05:17:52;0.80;;;0.20;;
11533;SDS011;5823;50.588;8.462;2023-08-06T05:20:19;0.20;;;0.20;;
11533;SDS011;5823;50.588;8.462;2023-08-06T05:22:47;0.15;;;0.15;;
11533;SDS011;5823;50.588;8.462;2023-08-06T05:25:13;0.20;;;0.20;;
11533;SDS011;5823;50.588;8.462;2023-08-06T05:27:39;0.30;;;0.30;;
11533;SDS011;5823;50.588;8.462;2023-08-06T05:30:06;0.20;;;0.20;;
11533;SDS011;5823;50.588;8.462;2023-08-06T05:32:33;0.15;;;0.15;;
11533;SDS011;5823;50.588;8.462;2023-08-06T05:34:59;0.45;;;0.45;;
11533;SDS011;5823;50.588;8.462;2023-08-06T05:37:26;0.32;;;0.32;;
11533;SDS011;5823;50.588;8.462;2023-08-06T05:39:54;0.20;;;0.20;;
11533;SDS011;5823;50.588;8.462;2023-08-06T05:42:20;0.13;;;0.13;;
11533;SDS011;5823;50.588;8.462;2023-08-06T05:44:47;0.25;;;0.25;;
11533;SDS011;5823;50.588;8.462;2023-08-06T05:47:13;0.13;;;0.13;;
11533;SDS011;5823;50.588;8.462;2023-08-06T05:49:39;0.20;;;0.20;;
11533;SDS011;5823;50.588;8.462;2023-08-06T05:52:06;0.22;;;0.20;;
11533;SDS011;5823;50.588;8.462;2023-08-06T05:54:33;0.45;;;0.30;;
11533;SDS011;5823;50.588;8.462;2023-08-06T05:57:01;0.30;;;0.30;;
11533;SDS011;5823;50.588;8.462;2023-08-06T06:05:13;0.10;;;0.10;;
11533;SDS011;5823;50.588;8.462;2023-08-06T06:07:39;0.20;;;0.20;;
11533;SDS011;5823;50.588;8.462;2023-08-06T06:10:06;0.17;;;0.17;;
11533;SDS011;5823;50.588;8.462;2023-08-06T06:12:34;0.10;;;0.10;;
11533;SDS011;5823;50.588;8.462;2023-08-06T06:15:01;0.13;;;0.13;;
11533;SDS011;5823;50.588;8.462;2023-08-06T06:17:28;0.20;;;0.20;;
11533;SDS011;5823;50.588;8.462;2023-08-06T06:19:55;0.20;;;0.20;;
11533;SDS011;5823;50.588;8.462;2023-08-06T06:22:21;0.30;;;0.28;;
11533;SDS011;5823;50.588;8.462;2023-08-06T06:24:48;0.10;;;0.10;;
11533;SDS011;5823;50.588;8.462;2023-08-06T06:27:18;0.17;;;0.13;;
11533;SDS011;5823;50.588;8.462;2023-08-06T06:29:46;0.10;;;0.10;;
11533;SDS011;5823;50.588;8.462;2023-08-06T06:32:12;0.00;;;0.00;;
11533;SDS011;5823;50.588;8.462;2023-08-06T06:34:39;0.10;;;0.10;;
11533;SDS011;5823;50.588;8.462;2023-08-06T06:37:05;0.10;;;0.10;;
11533;SDS011;5823;50.588;8.462;2023-08-06T06:39:31;0.10;;;0.10;;
11533;SDS011;5823;50.588;8.462;2023-08-06T06:41:58;0.03;;;0.00;;
11533;SDS011;5823;50.588;8.462;2023-08-06T06:44:24;0.00;;;0.00;;
11533;SDS011;5823;50.588;8.462;2023-08-06T06:46:52;0.15;;;0.15;;
11533;SDS011;5823;50.588;8.462;2023-08-06T06:49:20;0.00;;;0.00;;
11533;SDS011;5823;50.588;8.462;2023-08-06T06:51:46;0.10;;;0.10;;
11533;SDS011;5823;50.588;8.462;2023-08-06T06:54:13;0.13;;;0.13;;
11533;SDS011;5823;50.588;8.462;2023-08-06T06:56:39;0.10;;;0.10;;
11533;SDS011;5823;50.588;8.462;2023-08-06T06:59:05;0.00;;;0.00;;
11533;SDS011;5823;50.588;8.462;2023-08-06T07:01:32;0.00;;;0.00;;
11533;SDS011;5823;50.588;8.462;2023-08-06T07:03:59;0.00;;;0.00;;
11533;SDS011;5823;50.588;8.462;2023-08-06T07:06:29;0.10;;;0.08;;
11533;SDS011;5823;50.588;8.462;2023-08-06T07:08:56;0.10;;;0.10;;
11533;SDS011;5823;50.588;8.462;2023-08-06T07:11:22;0.10;;;0.10;;
11533;SDS011;5823;50.588;8.462;2023-08-06T07:13:49;0.10;;;0.10;;
11533;SDS011;5823;50.588;8.462;2023-08-06T07:16:15;0.00;;;0.00;;
11533;SDS011;5823;50.588;8.462;2023-08-06T07:18:42;0.00;;;0.00;;
11533;SDS011;5823;50.588;8.462;2023-08-06T07:21:09;0.10;;;0.10;;
11533;SDS011;5823;50.588;8.462;2023-08-06T07:23:37;0.00;;;0.00;;
11533;SDS011;5823;50.588;8.462;2023-08-06T07:26:03;0.10;;;0.10;;
11533;SDS011;5823;50.588;8.462;2023-08-06T07:28:30;0.10;;;0.10;;
11533;SDS011;5823;50.588;8.462;2023-08-06T07:30:56;0.00;;;0.00;;
11533;SDS011;5823;50.588;8.462;2023-08-06T07:33:24;0.00;;;0.00;;
11533;SDS011;5823;50.588;8.462;2023-08-06T07:35:50;0.10;;;0.10;;
11533;SDS011;5823;50.588;8.462;2023-08-06T07:38:18;0.03;;;0.03;;
11533;SDS011;5823;50.588;8.462;2023-08-06T07:40:45;0.08;;;0.00;;
11533;SDS011;5823;50.588;8.462;2023-08-06T07:43:11;0.03;;;0.00;;
11533;SDS011;5823;50.588;8.462;2023-08-06T07:45:37;0.10;;;0.10;;
11533;SDS011;5823;50.588;8.462;2023-08-06T07:48:04;0.00;;;0.00;;
11533;SDS011;5823;50.588;8.462;2023-08-06T07:50:31;0.00;;;0.00;;
11533;SDS011;5823;50.588;8.462;2023-08-06T07:52:57;0.10;;;0.10;;
11533;SDS011;5823;50.588;8.462;2023-08-06T07:55:25;0.08;;;0.08;;
11533;SDS011;5823;50.588;8.462;2023-08-06T07:57:51;0.00;;;0.00;;
11533;SDS011;5823;50.588;8.462;2023-08-06T08:00:18;0.10;;;0.10;;
11533;SDS011;5823;50.588;8.462;2023-08-06T08:02:44;0.10;;;0.10;;
11533;SDS011;5823;50.588;8.462;2023-08-06T08:05:12;0.00;;;0.00;;
11533;SDS011;5823;50.588;8.462;2023-08-06T08:07:38;0.00;;;0.00;;
11533;SDS011;5823;50.588;8.462;2023-08-06T08:10:05;0.00;;;0.00;;
11533;SDS011;5823;50.588;8.462;2023-08-06T08:12:33;0.00;;;0.00;;
11533;SDS011;5823;50.588;8.462;2023-08-06T08:15:01;0.00;;;0.00;;
11533;SDS011;5823;50.588;8.462;2023-08-06T08:17:28;0.28;;;0.10;;
11533;SDS011;5823;50.588;8.462;2023-08-06T08:19:54;0.00;;;0.00;;
11533;SDS011;5823;50.588;8.462;2023-08-06T08:22:21;0.15;;;0.00;;
11533;SDS011;5823;50.588;8.462;2023-08-06T08:24:47;0.00;;;0.00;;
11533;SDS011;5823;50.588;8.462;2023-08-06T08:27:13;0.00;;;0.00;;
11533;SDS011;5823;50.588;8.462;2023-08-06T08:29:41;0.00;;;0.00;;
11533;SDS011;5823;50.588;8.462;2023-08-06T08:32:07;0.00;;;0.00;;
11533;SDS011;5823;50.588;8.462;2023-08-06T08:34:34;0.00;;;0.00;;
11533;SDS011;5823;50.588;8.462;2023-08-06T08:37:00;0.03;;;0.03;;
11533;SDS011;5823;50.588;8.462;2023-08-06T08:39:26;0.00;;;0.00;;
11533;SDS011;5823;50.588;8.462;2023-08-06T08:41:53;0.00;;;0.00;;
11533;SDS011;5823;50.588;8.462;2023-08-06T08:44:19;0.00;;;0.00;;
11533;SDS011;5823;50.588;8.462;2023-08-06T08:46:47;0.10;;;0.10;;
11533;SDS011;5823;50.588;8.462;2023-08-06T08:49:14;0.10;;;0.10;;
11533;SDS011;5823;50.588;8.462;2023-08-06T08:51:40;0.15;;;0.10;;
11533;SDS011;5823;50.588;8.462;2023-08-06T08:54:07;0.00;;;0.00;;
11533;SDS011;5823;50.588;8.462;2023-08-06T08:56:36;0.00;;;0.00;;
11533;SDS011;5823;50.588;8.462;2023-08-06T08:59:02;0.03;;;0.03;;
11533;SDS011;5823;50.588;8.462;2023-08-06T09:01:29;0.08;;;0.08;;
11533;SDS011;5823;50.588;8.462;2023-08-06T09:03:56;0.08;;;0.08;;
11533;SDS011;5823;50.588;8.462;2023-08-06T09:06:23;0.10;;;0.10;;
11533;SDS011;5823;50.588;8.462;2023-08-06T09:08:51;0.00;;;0.00;;
11533;SDS011;5823;50.588;8.462;2023-08-06T09:11:21;0.10;;;0.10;;
11533;SDS011;5823;50.588;8.462;2023-08-06T09:13:47;0.10;;;0.05;;
11533;SDS011;5823;50.588;8.462;2023-08-06T09:16:14;0.00;;;0.00;;
11533;SDS011;5823;50.588;8.462;2023-08-06T09:18:40;0.00;;;0.00;;
11533;SDS011;5823;50.588;8.462;2023-08-06T09:21:08;0.00;;;0.00;;
11533;SDS011;5823;50.588;8.462;2023-08-06T09:23:39;0.20;;;0.20;;
11533;SDS011;5823;50.588;8.462;2023-08-06T09:26:05;0.10;;;0.10;;
11533;SDS011;5823;50.588;8.462;2023-08-06T09:28:36;0.10;;;0.10;;
11533;SDS011;5823;50.588;8.462;2023-08-06T09:31:03;0.10;;;0.10;;
11533;SDS011;5823;50.588;8.462;2023-08-06T09:33:30;0.08;;;0.08;;
11533;SDS011;5823;50.588;8.462;2023-08-06T09:50:20;0.10;;;0.10;;
11533;SDS011;5823;50.588;8.462;2023-08-06T09:52:47;0.10;;;0.10;;
11533;SDS011;5823;50.588;8.462;2023-08-06T09:55:13;0.20;;;0.20;;
11533;SDS011;5823;50.588;8.462;2023-08-06T09:57:40;0.10;;;0.10;;
11533;SDS011;5823;50.588;8.462;2023-08-06T10:00:07;0.00;;;0.00;;
11533;SDS011;5823;50.588;8.462;2023-08-06T10:02:35;0.03;;;0.03;;
11533;SDS011;5823;50.588;8.462;2023-08-06T10:05:02;0.10;;;0.10;;
11533;SDS011;5823;50.588;8.462;2023-08-06T10:07:30;0.00;;;0.00;;
11533;SDS011;5823;50.588;8.462;2023-08-06T10:09:56;0.00;;;0.00;;
11533;SDS011;5823;50.588;8.462;2023-08-06T10:12:22;0.15;;;0.15;;
11533;SDS011;5823;50.588;8.462;2023-08-06T10:14:50;0.10;;;0.10;;
11533;SDS011;5823;50.588;8.462;2023-08-06T10:17:16;0.10;;;0.10;;
11533;SDS011;5823;50.588;8.462;2023-08-06T10:19:43;0.00;;;0.00;;
11533;SDS011;5823;50.588;8.462;2023-08-06T10:22:13;0.10;;;0.00;;
11533;SDS011;5823;50.588;8.462;2023-08-06T10:24:51;0.10;;;0.10;;
11533;SDS011;5823;50.588;8.462;2023-08-06T10:27:27;0.05;;;0.05;;
11533;SDS011;5823;50.588;8.462;2023-08-06T10:29:54;0.00;;;0.00;;
11533;SDS011;5823;50.588;8.462;2023-08-06T10:32:20;0.00;;;0.00;;
11533;SDS011;5823;50.588;8.462;2023-08-06T10:34:54;0.00;;;0.00;;
11533;SDS011;5823;50.588;8.462;2023-08-06T10:37:21;0.10;;;0.10;;
11533;SDS011;5823;50.588;8.462;2023-08-06T10:39:48;0.05;;;0.05;;
11533;SDS011;5823;50.588;8.462;2023-08-06T10:42:20;0.03;;;0.03;;
11533;SDS011;5823;50.588;8.462;2023-08-06T10:47:30;0.03;;;0.03;;
11533;SDS011;5823;50.588;8.462;2023-08-06T10:50:04;0.20;;;0.10;;
11533;SDS011;5823;50.588;8.462;2023-08-06T10:52:30;0.10;;;0.10;;
11533;SDS011;5823;50.588;8.462;2023-08-06T10:54:57;0.00;;;0.00;;
11533;SDS011;5823;50.588;8.462;2023-08-06T11:06:04;0.10;;;0.10;;
11533;SDS011;5823;50.588;8.462;2023-08-06T11:08:33;0.10;;;0.10;;
11533;SDS011;5823;50.588;8.462;2023-08-06T11:11:07;0.00;;;0.00;;
11533;SDS011;5823;50.588;8.462;2023-08-06T11:13:33;0.00;;;0.00;;
11533;SDS011;5823;50.588;8.462;2023-08-06T11:16:00;0.03;;;0.03;;
11533;SDS011;5823;50.588;8.462;2023-08-06T11:18:26;0.00;;;0.00;;
11533;SDS011;5823;50.588;8.462;2023-08-06T11:29:32;0.00;;;0.00;;
11533;SDS011;5823;50.588;8.462;2023-08-06T11:32:03;0.00;;;0.00;;
11533;SDS011;5823;50.588;8.462;2023-08-06T11:34:29;0.13;;;0.13;;
11533;SDS011;5823;50.588;8.462;2023-08-06T11:36:56;0.10;;;0.10;;
11533;SDS011;5823;50.588;8.462;2023-08-06T11:39:23;0.20;;;0.20;;
11533;SDS011;5823;50.588;8.462;2023-08-06T11:41:49;0.08;;;0.08;;
11533;SDS011;5823;50.588;8.462;2023-08-06T11:44:18;0.15;;;0.15;;
11533;SDS011;5823;50.588;8.462;2023-08-06T11:46:53;0.47;;;0.10;;
11533;SDS011;5823;50.588;8.462;2023-08-06T11:49:21;0.10;;;0.10;;
11533;SDS011;5823;50.588;8.462;2023-08-06T11:52:07;0.00;;;0.00;;
11533;SDS011;5823;50.588;8.462;2023-08-06T11:55:01;0.10;;;0.10;;
11533;SDS011;5823;50.588;8.462;2023-08-06T12:00:45;0.00;;;0.00;;
11533;SDS011;5823;50.588;8.462;2023-08-06T12:03:13;0.10;;;0.10;;
11533;SDS011;5823;50.588;8.462;2023-08-06T12:05:39;0.10;;;0.10;;
11533;SDS011;5823;50.588;8.462;2023-08-06T12:08:06;0.10;;;0.10;;
11533;SDS011;5823;50.588;8.462;2023-08-06T12:10:35;0.13;;;0.13;;
11533;SDS011;5823;50.588;8.462;2023-08-06T12:13:01;0.10;;;0.10;;
11533;SDS011;5823;50.588;8.462;2023-08-06T12:15:28;0.05;;;0.05;;
11533;SDS011;5823;50.588;8.462;2023-08-06T12:17:55;0.10;;;0.10;;
11533;SDS011;5823;50.588;8.462;2023-08-06T12:20:23;0.00;;;0.00;;
11533;SDS011;5823;50.588;8.462;2023-08-06T12:22:50;0.00;;;0.00;;
11533;SDS011;5823;50.588;8.462;2023-08-06T12:25:16;0.00;;;0.00;;
11533;SDS011;5823;50.588;8.462;2023-08-06T12:27:44;0.00;;;0.00;;
11533;SDS011;5823;50.588;8.462;2023-08-06T12:30:11;0.10;;;0.10;;
11533;SDS011;5823;50.588;8.462;2023-08-06T12:32:38;0.10;;;0.10;;
11533;SDS011;5823;50.588;8.462;2023-08-06T12:35:31;0.00;;;0.00;;
11533;SDS011;5823;50.588;8.462;2023-08-06T12:37:58;0.00;;;0.00;;
11533;SDS011;5823;50.588;8.462;2023-08-06T12:40:25;0.00;;;0.00;;
11533;SDS011;5823;50.588;8.462;2023-08-06T12:45:43;0.00;;;0.00;;
11533;SDS011;5823;50.588;8.462;2023-08-06T12:48:10;0.00;;;0.00;;
11533;SDS011;5823;50.588;8.462;2023-08-06T12:50:38;0.00;;;0.00;;
11533;SDS011;5823;50.588;8.462;2023-08-06T12:53:04;0.00;;;0.00;;
11533;SDS011;5823;50.588;8.462;2023-08-06T12:55:30;0.00;;;0.00;;
11533;SDS011;5823;50.588;8.462;2023-08-06T12:57:57;0.00;;;0.00;;
11533;SDS011;5823;50.588;8.462;2023-08-06T13:00:23;0.00;;;0.00;;
11533;SDS011;5823;50.588;8.462;2023-08-06T13:02:50;0.00;;;0.00;;
11533;SDS011;5823;50.588;8.462;2023-08-06T13:05:16;0.00;;;0.00;;
11533;SDS011;5823;50.588;8.462;2023-08-06T13:16:21;0.00;;;0.00;;
11533;SDS011;5823;50.588;8.462;2023-08-06T13:18:48;0.10;;;0.05;;
11533;SDS011;5823;50.588;8.462;2023-08-06T13:21:14;0.00;;;0.00;;
11533;SDS011;5823;50.588;8.462;2023-08-06T13:23:41;0.00;;;0.00;;
11533;SDS011;5823;50.588;8.462;2023-08-06T13:26:07;0.03;;;0.03;;
11533;SDS011;5823;50.588;8.462;2023-08-06T13:28:33;0.10;;;0.10;;
11533;SDS011;5823;50.588;8.462;2023-08-06T13:36:44;0.00;;;0.00;;
11533;SDS011;5823;50.588;8.462;2023-08-06T13:39:10;0.05;;;0.05;;
11533;SDS011;5823;50.588;8.462;2023-08-06T13:41:37;0.00;;;0.00;;
11533;SDS011;5823;50.588;8.462;2023-08-06T13:44:03;0.10;;;0.10;;
11533;SDS011;5823;50.588;8.462;2023-08-06T13:46:29;0.00;;;0.00;;
11533;SDS011;5823;50.588;8.462;2023-08-06T13:48:56;0.00;;;0.00;;
11533;SDS011;5823;50.588;8.462;2023-08-06T13:51:22;0.10;;;0.03;;
11533;SDS011;5823;50.588;8.462;2023-08-06T13:53:50;0.10;;;0.10;;
11533;SDS011;5823;50.588;8.462;2023-08-06T13:59:12;0.10;;;0.10;;
11533;SDS011;5823;50.588;8.462;2023-08-06T14:01:40;0.00;;;0.00;;
11533;SDS011;5823;50.588;8.462;2023-08-06T14:04:06;0.00;;;0.00;;
11533;SDS011;5823;50.588;8.462;2023-08-06T14:06:33;0.03;;;0.03;;
11533;SDS011;5823;50.588;8.462;2023-08-06T14:09:00;0.08;;;0.08;;
11533;SDS011;5823;50.588;8.462;2023-08-06T14:11:27;0.03;;;0.03;;
11533;SDS011;5823;50.588;8.462;2023-08-06T14:13:53;0.00;;;0.00;;
11533;SDS011;5823;50.588;8.462;2023-08-06T14:16:20;0.52;;;0.10;;
11533;SDS011;5823;50.588;8.462;2023-08-06T14:18:46;0.00;;;0.00;;
11533;SDS011;5823;50.588;8.462;2023-08-06T14:21:13;0.00;;;0.00;;
11533;SDS011;5823;50.588;8.462;2023-08-06T14:26:36;0.00;;;0.00;;
11533;SDS011;5823;50.588;8.462;2023-08-06T14:29:03;0.15;;;0.10;;
11533;SDS011;5823;50.588;8.462;2023-08-06T14:31:29;0.00;;;0.00;;
11533;SDS011;5823;50.588;8.462;2023-08-06T14:33:56;0.10;;;0.10;;
11533;SDS011;5823;50.588;8.462;2023-08-06T14:36:23;0.08;;;0.08;;
11533;SDS011;5823;50.588;8.462;2023-08-06T14:38:49;0.00;;;0.00;;
11533;SDS011;5823;50.588;8.462;2023-08-06T14:41:15;0.10;;;0.10;;
11533;SDS011;5823;50.588;8.462;2023-08-06T14:43:43;0.10;;;0.10;;
11533;SDS011;5823;50.588;8.462;2023-08-06T14:49:01;0.00;;;0.00;;
11533;SDS011;5823;50.588;8.462;2023-08-06T14:51:28;0.00;;;0.00;;
11533;SDS011;5823;50.588;8.462;2023-08-06T14:53:54;0.00;;;0.00;;
11533;SDS011;5823;50.588;8.462;2023-08-06T14:56:20;0.05;;;0.05;;
11533;SDS011;5823;50.588;8.462;2023-08-06T14:58:50;0.20;;;0.10;;
11533;SDS011;5823;50.588;8.462;2023-08-06T15:01:16;0.05;;;0.05;;
11533;SDS011;5823;50.588;8.462;2023-08-06T15:03:43;0.10;;;0.10;;
11533;SDS011;5823;50.588;8.462;2023-08-06T15:06:09;0.08;;;0.08;;
11533;SDS011;5823;50.588;8.462;2023-08-06T15:08:36;0.10;;;0.10;;
11533;SDS011;5823;50.588;8.462;2023-08-06T15:11:02;0.08;;;0.08;;
11533;SDS011;5823;50.588;8.462;2023-08-06T15:13:28;0.03;;;0.03;;
11533;SDS011;5823;50.588;8.462;2023-08-06T15:15:56;0.10;;;0.10;;
11533;SDS011;5823;50.588;8.462;2023-08-06T15:18:23;0.05;;;0.05;;
11533;SDS011;5823;50.588;8.462;2023-08-06T15:20:50;0.08;;;0.08;;
11533;SDS011;5823;50.588;8.462;2023-08-06T15:23:16;0.10;;;0.10;;
11533;SDS011;5823;50.588;8.462;2023-08-06T15:25:43;0.00;;;0.00;;
11533;SDS011;5823;50.588;8.462;2023-08-06T15:28:09;0.20;;;0.20;;
11533;SDS011;5823;50.588;8.462;2023-08-06T15:30:35;0.00;;;0.00;;
11533;SDS011;5823;50.588;8.462;2023-08-06T15:33:03;0.03;;;0.03;;
11533;SDS011;5823;50.588;8.462;2023-08-06T15:35:29;0.10;;;0.10;;
11533;SDS011;5823;50.588;8.462;2023-08-06T15:37:56;0.10;;;0.10;;
11533;SDS011;5823;50.588;8.462;2023-08-06T15:40:22;0.10;;;0.10;;
11533;SDS011;5823;50.588;8.462;2023-08-06T15:42:49;0.03;;;0.03;;
11533;SDS011;5823;50.588;8.462;2023-08-06T15:45:15;0.20;;;0.20;;
11533;SDS011;5823;50.588;8.462;2023-08-06T15:47:42;0.03;;;0.03;;
11533;SDS011;5823;50.588;8.462;2023-08-06T15:50:09;0.10;;;0.10;;
11533;SDS011;5823;50.588;8.462;2023-08-06T15:52:39;0.10;;;0.10;;
11533;SDS011;5823;50.588;8.462;2023-08-06T15:55:06;0.10;;;0.10;;
11533;SDS011;5823;50.588;8.462;2023-08-06T15:57:32;0.00;;;0.00;;
11533;SDS011;5823;50.588;8.462;2023-08-06T15:59:58;0.10;;;0.10;;
11533;SDS011;5823;50.588;8.462;2023-08-06T16:02:25;0.10;;;0.10;;
11533;SDS011;5823;50.588;8.462;2023-08-06T16:04:52;0.08;;;0.08;;
11533;SDS011;5823;50.588;8.462;2023-08-06T16:07:20;0.10;;;0.00;;
11533;SDS011;5823;50.588;8.462;2023-08-06T16:09:48;0.00;;;0.00;;
11533;SDS011;5823;50.588;8.462;2023-08-06T16:12:15;0.10;;;0.10;;
11533;SDS011;5823;50.588;8.462;2023-08-06T16:34:47;0.90;;;0.20;;
11533;SDS011;5823;50.588;8.462;2023-08-06T16:37:14;0.00;;;0.00;;
11533;SDS011;5823;50.588;8.462;2023-08-06T16:39:41;0.00;;;0.00;;
11533;SDS011;5823;50.588;8.462;2023-08-06T16:42:07;0.10;;;0.10;;
11533;SDS011;5823;50.588;8.462;2023-08-06T16:44:34;0.10;;;0.10;;
11533;SDS011;5823;50.588;8.462;2023-08-06T16:47:00;0.00;;;0.00;;
11533;SDS011;5823;50.588;8.462;2023-08-06T16:49:27;0.10;;;0.10;;
11533;SDS011;5823;50.588;8.462;2023-08-06T17:03:23;0.10;;;0.10;;
11533;SDS011;5823;50.588;8.462;2023-08-06T17:05:50;0.10;;;0.10;;
11533;SDS011;5823;50.588;8.462;2023-08-06T17:08:16;0.03;;;0.03;;
11533;SDS011;5823;50.588;8.462;2023-08-06T17:10:42;0.10;;;0.10;;
11533;SDS011;5823;50.588;8.462;2023-08-06T17:13:09;0.00;;;0.00;;
11533;SDS011;5823;50.588;8.462;2023-08-06T17:15:35;0.00;;;0.00;;
11533;SDS011;5823;50.588;8.462;2023-08-06T17:18:02;0.10;;;0.10;;
11533;SDS011;5823;50.588;8.462;2023-08-06T17:20:30;0.05;;;0.05;;
11533;SDS011;5823;50.588;8.462;2023-08-06T17:22:57;0.00;;;0.00;;
11533;SDS011;5823;50.588;8.462;2023-08-06T17:25:23;0.10;;;0.10;;
11533;SDS011;5823;50.588;8.462;2023-08-06T17:27:49;0.00;;;0.00;;
11533;SDS011;5823;50.588;8.462;2023-08-06T17:30:16;0.00;;;0.00;;
11533;SDS011;5823;50.588;8.462;2023-08-06T17:32:44;0.10;;;0.10;;